Deeth, Nevada
Current Conditions -  °F | °C
As of 7:56 PM on Wednesday 22 Oct 2014 (Local Time) from KEKO Reporting Station
Clear Clear  
Wind Chill: 54°   Ceiling: Unl
Heat Index: 54°   Visibility: 10mi
Dew Point: 22°   Wind: 3mph
Humidity: 29%   Direction: 30°NNE
Pressure: 30.1"   Gusts: NA
Location:  41.07°N, 115.28°W
Report Text: KEKO 230256Z AUTO 03003KT 10SM CLR 12/M06 A3010 RMK AO2 SLP191 T01221056 58001
Loading
Personal Weather Stations






























Interactive Weather Map
Tropical Storm Tracking
New forecast layout! Learn more

10-Day Weather Forecast

Advertisements
Track Severe Weather on mobile